Time;durP1;ratioP1;P1;durP2;ratioP2;P2;SDS_P1;SDS_P2;PMS_P1;PMS_P2;Temp;Humidity;BMP_temperature;BMP_pressure;BME280_temperature;BME280_humidity;BME280_pressure;Samples;Min_cycle;Max_cycle;Signal;HPM_P1;HPM_P2
2023/09/11 00:02:18;;;;;;;24.65;11.98;;;21.60;99.90;;;;;;5024657;28;20392;-70
2023/09/11 00:04:44;;;;;;;24.02;12.15;;;21.30;99.90;;;;;;5008125;28;20046;-71
2023/09/11 00:07:09;;;;;;;26.92;12.50;;;21.70;99.90;;;;;;5029018;28;20488;-71
2023/09/11 00:09:35;;;;;;;25.63;12.15;;;21.40;99.90;;;;;;5029095;28;20611;-71
2023/09/11 00:12:01;;;;;;;28.95;11.90;;;21.50;99.90;;;;;;5028503;28;20124;-70
2023/09/11 00:14:27;;;;;;;24.52;12.00;;;21.40;99.90;;;;;;5028759;28;20045;-71
2023/09/11 00:16:53;;;;;;;28.63;11.85;;;21.50;99.90;;;;;;5010940;28;20064;-71
2023/09/11 00:19:18;;;;;;;29.35;12.18;;;21.20;99.90;;;;;;5027627;28;20033;-70
2023/09/11 00:21:44;;;;;;;24.88;11.73;;;21.40;99.90;;;;;;5010584;28;20033;-71
2023/09/11 00:24:09;;;;;;;21.63;12.15;;;21.30;99.90;;;;;;5010227;28;20041;-70
2023/09/11 00:26:35;;;;;;;22.50;12.23;;;21.40;99.90;;;;;;5010608;28;20061;-70
2023/09/11 00:29:00;;;;;;;28.58;14.05;;;21.30;99.90;;;;;;5010615;28;20049;-71
2023/09/11 00:31:26;;;;;;;26.35;11.70;;;21.40;99.90;;;;;;5028366;28;20060;-70
2023/09/11 00:33:51;;;;;;;19.95;13.00;;;21.40;99.90;;;;;;5010358;28;20045;-70
2023/09/11 00:36:17;;;;;;;24.73;12.15;;;21.30;99.90;;;;;;5028725;28;20385;-70
2023/09/11 00:38:47;;;;;;;30.45;13.25;;;21.30;99.90;;;;;;5028268;28;20042;-70
2023/09/11 00:41:13;;;;;;;24.10;12.23;;;21.30;99.90;;;;;;5010156;28;20223;-70
2023/09/11 00:43:38;;;;;;;21.90;11.90;;;21.30;99.90;;;;;;5010854;28;20586;-70
2023/09/11 00:46:05;;;;;;;21.23;13.18;;;21.40;99.90;;;;;;5026850;28;20044;-71
2023/09/11 00:48:31;;;;;;;25.15;12.52;;;21.40;99.90;;;;;;5010714;28;20046;-70
2023/09/11 00:50:57;;;;;;;30.30;12.93;;;21.30;99.90;;;;;;5026967;28;20120;-71
2023/09/11 00:53:24;;;;;;;23.80;12.52;;;21.20;99.90;;;;;;5010249;28;20113;-70
2023/09/11 00:55:50;;;;;;;36.10;14.15;;;21.20;99.90;;;;;;5026988;28;20116;-71
2023/09/11 00:58:17;;;;;;;27.70;12.70;;;21.20;99.90;;;;;;5028330;28;20117;-70
2023/09/11 01:00:44;;;;;;;29.50;13.00;;;21.10;99.90;;;;;;5010498;28;20081;-70
2023/09/11 01:03:14;;;;;;;29.92;12.93;;;21.10;99.90;;;;;;5010179;28;20045;-70
2023/09/11 01:05:41;;;;;;;25.65;13.57;;;21.10;99.90;;;;;;5009788;28;20049;-70
2023/09/11 01:08:06;;;;;;;29.92;12.18;;;21.00;99.90;;;;;;5027853;28;20056;-70
2023/09/11 01:10:33;;;;;;;33.53;14.25;;;21.20;99.90;;;;;;5028260;28;20041;-70
2023/09/11 01:12:59;;;;;;;22.30;12.20;;;;;;;;;;5027599;28;20041;-70
2023/09/11 01:15:30;;;;;;;25.25;11.88;;;21.10;99.90;;;;;;5006851;28;20120;-71
2023/09/11 01:18:19;;;;;;;25.52;13.05;;;21.10;99.90;;;;;;5028048;28;20037;-71
2023/09/11 01:21:15;;;;;;;29.60;12.52;;;21.10;99.90;;;;;;5022044;28;20076;-70
2023/09/11 01:24:12;;;;;;;32.97;13.63;;;21.20;99.90;;;;;;5026598;28;20042;-70
2023/09/11 01:27:03;;;;;;;30.45;13.40;;;21.20;99.90;;;;;;5024843;28;20818;-71
2023/09/11 01:29:33;;;;;;;22.58;12.20;;;21.10;99.90;;;;;;5009470;28;20053;-70
2023/09/11 01:32:01;;;;;;;22.90;12.32;;;21.20;99.90;;;;;;5027638;28;20029;-70
2023/09/11 01:34:27;;;;;;;27.65;12.90;;;21.10;99.90;;;;;;5027592;28;20073;-70
2023/09/11 01:36:52;;;;;;;26.73;12.77;;;21.10;99.90;;;;;;5027031;28;20080;-70
2023/09/11 01:39:18;;;;;;;20.13;12.30;;;21.20;99.90;;;;;;5025932;28;20041;-70
2023/09/11 01:41:46;;;;;;;25.02;11.77;;;21.10;99.90;;;;;;5027305;28;20070;-70
2023/09/11 01:44:25;;;;;;;28.98;13.50;;;21.20;99.90;;;;;;5008763;28;20780;-70
2023/09/11 01:46:53;;;;;;;25.17;12.23;;;21.20;99.90;;;;;;5027266;28;20112;-70
2023/09/11 01:49:21;;;;;;;26.67;11.85;;;21.20;99.90;;;;;;5024287;28;20593;-70
2023/09/11 01:51:49;;;;;;;34.25;14.27;;;21.20;99.90;;;;;;5009134;28;20050;-72
2023/09/11 01:54:16;;;;;;;23.83;12.73;;;21.10;99.90;;;;;;5026545;28;20134;-71
2023/09/11 01:56:42;;;;;;;23.90;11.77;;;21.10;99.90;;;;;;5008977;28;20485;-71
2023/09/11 01:59:07;;;;;;;30.98;14.43;;;21.00;99.90;;;;;;5009437;28;20045;-70
2023/09/11 02:01:33;;;;;;;32.05;13.75;;;21.00;99.90;;;;;;5009019;28;20049;-71
2023/09/11 02:03:58;;;;;;;33.00;13.55;;;20.90;99.90;;;;;;5008436;28;20042;-70
2023/09/11 02:06:24;;;;;;;26.63;13.20;;;20.90;99.90;;;;;;5026922;28;20037;-71
2023/09/11 02:08:49;;;;;;;27.40;13.10;;;21.00;99.90;;;;;;5008853;28;20041;-70
2023/09/11 02:11:15;;;;;;;29.20;12.90;;;21.00;99.90;;;;;;5026789;28;20052;-70
2023/09/11 02:13:41;;;;;;;27.33;12.57;;;21.00;99.90;;;;;;5026633;28;20091;-71
2023/09/11 02:16:06;;;;;;;28.20;13.40;;;21.00;99.90;;;;;;5026331;28;20124;-71
2023/09/11 02:18:32;;;;;;;28.25;14.65;;;21.00;99.90;;;;;;5008925;28;20045;-71
2023/09/11 02:20:57;;;;;;;28.23;14.88;;;21.10;99.90;;;;;;5026553;28;20049;-70
2023/09/11 02:23:23;;;;;;;30.67;13.38;;;21.00;99.90;;;;;;5026572;28;20568;-70
2023/09/11 02:25:49;;;;;;;29.88;14.45;;;20.90;99.90;;;;;;5008249;28;20037;-71
2023/09/11 02:28:15;;;;;;;28.05;14.10;;;20.90;99.90;;;;;;5007846;28;20057;-71
2023/09/11 02:30:40;;;;;;;28.65;15.85;;;20.90;99.90;;;;;;5007455;28;20041;-71
2023/09/11 02:33:06;;;;;;;27.33;14.73;;;20.70;99.90;;;;;;5026507;28;20381;-70
2023/09/11 02:35:31;;;;;;;27.55;13.13;;;20.80;99.90;;;;;;5026187;28;20052;-70
2023/09/11 02:37:58;;;;;;;29.38;14.43;;;20.70;99.90;;;;;;5026294;28;20033;-70
2023/09/11 02:40:23;;;;;;;32.97;14.55;;;20.60;99.90;;;;;;5026278;28;20037;-70
2023/09/11 02:42:49;;;;;;;31.17;15.05;;;20.70;99.90;;;;;;5025914;28;20591;-70
2023/09/11 02:45:14;;;;;;;23.17;14.23;;;20.70;99.90;;;;;;5007972;28;20034;-70
2023/09/11 02:47:40;;;;;;;28.17;14.52;;;20.70;99.90;;;;;;5008283;28;20098;-70
2023/09/11 02:50:06;;;;;;;26.90;13.10;;;20.60;99.90;;;;;;5025818;28;20041;-70
2023/09/11 02:52:32;;;;;;;24.67;14.10;;;;;;;;;;5026048;28;20586;-70
2023/09/11 02:54:58;;;;;;;24.73;13.77;;;20.70;99.90;;;;;;5025772;28;20080;-71
2023/09/11 02:57:23;;;;;;;25.90;13.60;;;20.80;99.90;;;;;;5025832;28;20492;-71
2023/09/11 02:59:53;;;;;;;25.52;15.52;;;20.80;99.90;;;;;;5008008;28;20045;-71
2023/09/11 03:02:19;;;;;;;29.30;15.50;;;;;;;;;;5026055;28;20042;-70
2023/09/11 03:04:45;;;;;;;32.33;14.85;;;20.70;99.90;;;;;;5007663;28;20056;-70
2023/09/11 03:07:14;;;;;;;26.58;15.48;;;20.70;99.90;;;;;;5025844;28;20106;-70
2023/09/11 03:09:40;;;;;;;26.52;15.35;;;20.70;99.90;;;;;;5026069;28;20053;-70
2023/09/11 03:12:06;;;;;;;34.50;15.60;;;20.70;99.90;;;;;;5025841;28;20047;-70
2023/09/11 03:14:31;;;;;;;26.90;15.23;;;20.70;99.90;;;;;;5024021;28;20479;-70
2023/09/11 03:16:57;;;;;;;28.05;15.98;;;;;;;;;;5007727;28;20060;-70
2023/09/11 03:19:23;;;;;;;25.80;14.80;;;20.70;99.90;;;;;;5025495;28;20033;-71
2023/09/11 03:21:48;;;;;;;26.52;15.20;;;20.60;99.90;;;;;;5007535;28;20046;-71
2023/09/11 03:24:14;;;;;;;27.88;14.75;;;20.60;99.90;;;;;;5007541;28;20045;-70
2023/09/11 03:26:40;;;;;;;28.95;15.60;;;;;;;;;;5007695;28;20045;-70
2023/09/11 03:29:06;;;;;;;30.85;15.45;;;;;;;;;;5025596;28;20041;-70
2023/09/11 03:31:32;;;;;;;30.48;15.85;;;20.60;99.90;;;;;;5007179;28;20197;-70
2023/09/11 03:33:57;;;;;;;28.02;14.80;;;20.50;99.90;;;;;;5007352;28;20041;-70
2023/09/11 03:36:23;;;;;;;32.45;15.43;;;20.50;99.90;;;;;;5025493;28;20033;-70
2023/09/11 03:38:48;;;;;;;23.17;14.82;;;20.30;99.90;;;;;;5007309;28;20396;-71
2023/09/11 03:41:14;;;;;;;23.88;15.55;;;20.50;99.90;;;;;;5025486;28;20088;-71
2023/09/11 03:43:39;;;;;;;30.55;15.15;;;20.60;99.90;;;;;;5025003;28;20044;-70
2023/09/11 03:46:05;;;;;;;28.35;16.33;;;20.60;99.90;;;;;;5025258;28;20052;-71
2023/09/11 03:48:30;;;;;;;25.55;15.98;;;20.40;99.90;;;;;;5006939;28;20041;-70
2023/09/11 03:50:56;;;;;;;27.05;15.07;;;;;;;;;;5025015;28;20061;-71
2023/09/11 03:53:22;;;;;;;30.35;14.88;;;20.50;99.90;;;;;;5006904;28;20053;-70
2023/09/11 03:55:47;;;;;;;27.95;14.18;;;20.40;99.90;;;;;;5025032;28;20037;-70
2023/09/11 03:58:13;;;;;;;26.48;14.50;;;20.40;99.90;;;;;;5007375;28;20056;-70
2023/09/11 04:00:39;;;;;;;31.02;16.50;;;20.50;99.90;;;;;;5024845;28;20040;-71
2023/09/11 04:03:04;;;;;;;26.45;15.45;;;20.40;99.90;;;;;;5007142;28;20053;-70
2023/09/11 04:05:30;;;;;;;30.15;14.40;;;;;;;;;;5025019;28;20096;-70
2023/09/11 04:07:57;;;;;;;27.17;13.85;;;20.20;99.90;;;;;;5024324;28;20511;-70
2023/09/11 04:10:22;;;;;;;23.98;15.10;;;20.30;99.90;;;;;;5006766;28;20037;-70
2023/09/11 04:12:48;;;;;;;27.67;15.38;;;20.40;99.90;;;;;;5024575;28;20083;-70
2023/09/11 04:15:13;;;;;;;31.48;16.30;;;20.30;99.90;;;;;;5006974;28;20048;-70
2023/09/11 04:17:39;;;;;;;28.40;15.32;;;20.30;99.90;;;;;;5023334;28;20473;-70
2023/09/11 04:20:05;;;;;;;29.98;15.18;;;20.30;99.90;;;;;;5006994;28;20056;-70
2023/09/11 04:22:31;;;;;;;35.30;15.68;;;20.20;99.90;;;;;;5024164;28;20053;-70
2023/09/11 04:24:56;;;;;;;30.60;14.90;;;20.30;99.90;;;;;;5006522;28;20045;-70
2023/09/11 04:27:22;;;;;;;34.63;16.80;;;20.30;99.90;;;;;;5024853;28;20131;-70
2023/09/11 04:29:48;;;;;;;34.03;16.38;;;20.20;99.90;;;;;;5024391;28;20061;-70
2023/09/11 04:32:13;;;;;;;29.02;15.52;;;20.10;99.90;;;;;;5024352;28;20040;-70
2023/09/11 04:34:39;;;;;;;27.65;14.48;;;20.20;99.90;;;;;;5024304;28;20034;-70
2023/09/11 04:37:04;;;;;;;33.88;14.68;;;20.30;99.90;;;;;;5024530;28;20072;-70
2023/09/11 04:39:30;;;;;;;26.50;14.68;;;20.20;99.90;;;;;;5024442;28;20076;-70
2023/09/11 04:41:56;;;;;;;29.30;14.52;;;;;;;;;;5024650;28;20116;-70
2023/09/11 04:44:21;;;;;;;29.15;15.15;;;20.20;99.90;;;;;;5006328;28;20390;-70
2023/09/11 04:46:47;;;;;;;25.95;14.63;;;20.10;99.90;;;;;;5006697;28;20705;-70
2023/09/11 04:49:12;;;;;;;33.83;16.63;;;20.20;99.90;;;;;;5006596;28;20041;-70
2023/09/11 04:51:38;;;;;;;28.77;15.38;;;20.20;99.90;;;;;;5026961;28;20042;-70
2023/09/11 04:54:04;;;;;;;27.92;14.80;;;;;;;;;;5010237;28;20126;-70
2023/09/11 04:56:29;;;;;;;29.30;15.25;;;20.20;99.90;;;;;;5028190;28;20167;-70
2023/09/11 04:58:55;;;;;;;26.33;16.00;;;20.30;99.90;;;;;;5009688;28;20041;-70
2023/09/11 05:01:20;;;;;;;28.23;15.15;;;20.30;99.90;;;;;;5028258;28;20483;-70
2023/09/11 05:03:46;;;;;;;27.63;14.05;;;;;;;;;;5010230;28;20247;-70
2023/09/11 05:06:12;;;;;;;23.85;14.55;;;20.20;99.90;;;;;;5028167;28;20045;-70
2023/09/11 05:08:37;;;;;;;32.22;15.43;;;20.20;99.90;;;;;;5009998;28;20921;-70
2023/09/11 05:11:03;;;;;;;31.65;15.40;;;20.20;99.90;;;;;;5028044;28;20045;-70
2023/09/11 05:13:29;;;;;;;31.83;16.65;;;;;;;;;;5009486;28;20045;-70
2023/09/11 05:15:54;;;;;;;33.40;16.23;;;20.10;99.90;;;;;;5027658;28;20041;-70
2023/09/11 05:18:20;;;;;;;24.77;14.80;;;20.20;99.90;;;;;;5009636;28;20121;-70
2023/09/11 05:20:47;;;;;;;28.42;14.93;;;20.20;99.90;;;;;;5027544;28;20120;-70
2023/09/11 05:23:12;;;;;;;27.92;15.07;;;20.20;99.90;;;;;;5027870;28;20114;-70
2023/09/11 05:25:38;;;;;;;30.73;15.07;;;;;;;;;;5027237;28;20220;-71
2023/09/11 05:28:05;;;;;;;25.83;14.95;;;20.10;99.90;;;;;;5008730;28;20077;-70
2023/09/11 05:30:31;;;;;;;25.77;15.18;;;;;;;;;;5009249;28;20132;-71
2023/09/11 05:32:57;;;;;;;23.98;14.50;;;20.10;99.90;;;;;;5027355;28;20512;-70
2023/09/11 05:35:22;;;;;;;29.35;15.23;;;20.40;99.90;;;;;;5009141;28;20049;-70
2023/09/11 05:37:48;;;;;;;26.20;14.48;;;;;;;;;;5027236;28;20124;-70
2023/09/11 05:40:14;;;;;;;28.60;15.50;;;;;;;;;;5027412;28;20041;-69
2023/09/11 05:42:40;;;;;;;30.83;16.55;;;20.20;99.90;;;;;;5008988;28;20053;-70
2023/09/11 05:45:06;;;;;;;26.85;15.38;;;20.30;99.90;;;;;;5009108;28;20077;-70
2023/09/11 05:47:33;;;;;;;30.40;15.18;;;20.30;99.90;;;;;;5009354;28;20049;-70
2023/09/11 05:50:00;;;;;;;29.30;15.63;;;;;;;;;;5027157;28;20152;-71
2023/09/11 05:52:29;;;;;;;29.55;14.98;;;20.40;99.90;;;;;;5025205;28;20479;-71
2023/09/11 05:54:55;;;;;;;31.67;16.60;;;20.50;99.90;;;;;;5024624;28;20079;-70
2023/09/11 05:57:20;;;;;;;28.08;15.50;;;20.50;99.90;;;;;;5026799;28;20030;-71
2023/09/11 05:59:47;;;;;;;29.00;16.25;;;;;;;;;;5008382;28;20049;-70
2023/09/11 06:02:12;;;;;;;28.23;15.23;;;20.80;99.90;;;;;;5025663;28;20769;-70
2023/09/11 06:04:38;;;;;;;28.30;17.02;;;20.80;99.90;;;;;;5026342;28;20049;-68
2023/09/11 06:07:04;;;;;;;30.88;15.90;;;;;;;;;;5015608;28;20129;-67
2023/09/11 06:09:30;;;;;;;28.35;16.05;;;21.00;99.90;;;;;;5008370;28;20056;-67
2023/09/11 06:11:56;;;;;;;23.48;15.18;;;21.10;99.90;;;;;;5026229;28;20040;-68
2023/09/11 06:14:22;;;;;;;23.60;15.52;;;21.30;99.90;;;;;;5026274;28;20033;-68
2023/09/11 06:16:47;;;;;;;28.38;15.63;;;21.20;99.90;;;;;;5024902;28;20037;-68
2023/09/11 06:19:13;;;;;;;28.45;14.85;;;21.30;99.90;;;;;;5008547;28;20076;-68
2023/09/11 06:21:38;;;;;;;28.25;15.18;;;21.60;99.90;;;;;;5008405;28;20045;-67
2023/09/11 06:24:05;;;;;;;26.70;14.82;;;21.80;99.90;;;;;;5026407;28;20052;-69
2023/09/11 06:26:30;;;;;;;30.33;14.45;;;21.60;99.90;;;;;;5025894;28;20053;-69
2023/09/11 06:28:56;;;;;;;25.17;15.05;;;21.80;99.90;;;;;;5026246;28;20374;-68
2023/09/11 06:31:22;;;;;;;34.63;16.33;;;21.70;99.90;;;;;;5005921;28;20672;-67
2023/09/11 06:33:48;;;;;;;23.02;14.23;;;22.00;99.90;;;;;;5008254;28;20049;-67
2023/09/11 06:36:14;;;;;;;23.67;14.90;;;22.30;99.90;;;;;;5007869;28;20115;-67
2023/09/11 06:38:40;;;;;;;28.98;14.77;;;22.10;99.90;;;;;;5007680;28;20059;-67
2023/09/11 06:41:05;;;;;;;27.35;14.38;;;22.60;99.90;;;;;;5008228;28;20115;-67
2023/09/11 06:43:31;;;;;;;19.90;13.00;;;22.10;99.90;;;;;;5025848;28;20111;-67
2023/09/11 06:45:57;;;;;;;24.95;14.35;;;22.40;99.90;;;;;;5025952;28;20128;-67
2023/09/11 06:48:22;;;;;;;29.52;14.52;;;22.60;99.90;;;;;;5025792;28;20037;-67
2023/09/11 06:50:51;;;;;;;26.50;14.15;;;22.30;99.90;;;;;;5025888;28;20407;-67
2023/09/11 06:53:16;;;;;;;20.23;13.40;;;22.80;99.90;;;;;;5025325;28;20045;-67
2023/09/11 06:55:46;;;;;;;22.13;14.38;;;22.70;99.90;;;;;;5007278;28;20040;-67
2023/09/11 06:58:12;;;;;;;27.50;14.68;;;22.80;99.90;;;;;;5025708;28;20034;-67
2023/09/11 07:00:38;;;;;;;24.70;14.15;;;22.70;99.90;;;;;;5007351;28;20116;-67
2023/09/11 07:03:04;;;;;;;21.70;13.73;;;22.90;99.90;;;;;;5025507;28;20045;-67
2023/09/11 07:05:30;;;;;;;22.33;13.90;;;22.90;99.90;;;;;;5006801;28;20071;-67
2023/09/11 07:07:55;;;;;;;28.08;12.95;;;22.90;99.90;;;;;;5025149;28;20042;-67
2023/09/11 07:10:22;;;;;;;23.35;14.63;;;22.90;99.90;;;;;;5025360;28;20049;-67
2023/09/11 07:12:49;;;;;;;19.13;12.80;;;24.20;99.90;;;;;;5006754;28;20045;-67
2023/09/11 07:15:15;;;;;;;24.30;13.93;;;22.90;99.90;;;;;;5024959;28;20045;-67
2023/09/11 07:17:41;;;;;;;27.83;13.40;;;22.90;99.90;;;;;;5025260;28;20041;-67
2023/09/11 07:20:09;;;;;;;21.70;12.77;;;23.30;99.90;;;;;;5025412;28;20503;-67
2023/09/11 07:22:34;;;;;;;19.63;12.63;;;23.10;99.90;;;;;;5024608;28;20109;-67
2023/09/11 07:25:00;;;;;;;20.08;13.73;;;23.30;99.90;;;;;;5025433;28;20029;-67
2023/09/11 07:27:33;;;;;;;20.65;12.50;;;23.30;99.90;;;;;;5006433;28;20056;-67
2023/09/11 07:30:03;;;;;;;22.40;12.88;;;25.00;99.90;;;;;;5025016;28;20400;-67
2023/09/11 07:32:30;;;;;;;20.95;11.77;;;23.60;99.90;;;;;;5025435;28;20052;-67
2023/09/11 07:34:56;;;;;;;21.10;12.18;;;23.70;99.90;;;;;;5024943;28;20044;-67
2023/09/11 07:37:22;;;;;;;19.80;11.88;;;23.90;99.90;;;;;;5006921;28;20041;-67
2023/09/11 07:39:48;;;;;;;15.77;10.80;;;23.90;99.90;;;;;;5025003;28;20041;-67
2023/09/11 07:42:13;;;;;;;21.02;12.18;;;23.90;99.90;;;;;;5007170;28;20037;-68
2023/09/11 07:44:39;;;;;;;21.90;11.43;;;23.90;99.90;;;;;;5007473;28;20382;-68
2023/09/11 07:47:04;;;;;;;23.20;12.68;;;23.80;99.90;;;;;;5019911;28;20037;-69
2023/09/11 07:49:30;;;;;;;20.58;12.50;;;24.20;99.90;;;;;;5022269;28;20037;-68
2023/09/11 07:51:56;;;;;;;22.67;12.60;;;24.90;99.90;;;;;;5004627;28;20091;-67
2023/09/11 07:54:22;;;;;;;17.85;11.45;;;24.10;99.90;;;;;;5018422;28;20036;-67
2023/09/11 07:56:47;;;;;;;18.33;11.55;;;23.90;99.90;;;;;;5016251;28;20080;-67
2023/09/11 07:59:13;;;;;;;18.67;11.88;;;23.90;99.90;;;;;;5018779;28;20797;-67
2023/09/11 08:01:38;;;;;;;27.83;11.98;;;23.90;99.90;;;;;;5018130;28;20041;-68
2023/09/11 08:04:05;;;;;;;21.20;10.75;;;24.10;99.90;;;;;;5023694;28;20103;-67
2023/09/11 08:06:30;;;;;;;19.55;11.40;;;23.90;99.90;;;;;;5024162;28;20051;-68
2023/09/11 08:09:03;;;;;;;20.10;11.05;;;24.20;99.90;;;;;;5024311;28;20045;-67
2023/09/11 08:11:29;;;;;;;17.10;10.70;;;24.20;99.90;;;;;;5006401;28;20053;-68
2023/09/11 08:13:55;;;;;;;23.75;12.60;;;24.30;99.90;;;;;;5022720;28;20045;-68
2023/09/11 08:16:21;;;;;;;20.80;11.40;;;26.20;99.90;;;;;;5024267;28;20044;-67
2023/09/11 08:18:46;;;;;;;19.63;11.05;;;24.30;99.90;;;;;;5006546;28;20056;-67
2023/09/11 08:21:12;;;;;;;21.08;11.77;;;24.40;99.90;;;;;;5023229;28;20041;-68
2023/09/11 08:23:41;;;;;;;25.60;12.55;;;24.50;99.90;;;;;;5023974;28;20041;-68
2023/09/11 08:26:08;;;;;;;18.45;11.48;;;24.40;99.90;;;;;;5006582;28;20045;-68
2023/09/11 08:28:33;;;;;;;14.23;9.98;;;24.70;99.90;;;;;;4993410;28;20087;-67
2023/09/11 08:30:59;;;;;;;18.10;10.43;;;24.70;99.90;;;;;;5010208;28;20120;-67
2023/09/11 08:33:25;;;;;;;24.42;11.32;;;24.60;99.90;;;;;;5028103;28;20073;-68
2023/09/11 08:35:50;;;;;;;22.42;11.02;;;25.60;99.90;;;;;;5025194;28;20030;-68
2023/09/11 08:38:18;;;;;;;15.05;11.43;;;24.60;99.90;;;;;;5028157;28;20095;-68
2023/09/11 08:40:44;;;;;;;20.55;11.75;;;24.70;99.90;;;;;;5009710;28;20825;-68
2023/09/11 08:43:10;;;;;;;19.63;11.35;;;24.50;99.90;;;;;;4993516;28;20491;-68
2023/09/11 08:45:37;;;;;;;23.27;11.50;;;24.70;99.90;;;;;;5026318;28;20041;-68
2023/09/11 08:48:09;;;;;;;20.15;11.18;;;25.00;99.90;;;;;;5010698;28;20150;-67
2023/09/11 08:50:38;;;;;;;20.30;11.10;;;25.10;99.90;;;;;;5009648;28;20681;-69
2023/09/11 08:53:04;;;;;;;21.67;11.63;;;25.10;99.90;;;;;;5008987;28;20041;-69
2023/09/11 08:55:33;;;;;;;21.77;10.70;;;25.30;99.90;;;;;;5023633;28;20037;-68
2023/09/11 08:58:02;;;;;;;14.82;11.00;;;25.20;99.90;;;;;;5027860;28;20037;-68
2023/09/11 09:00:28;;;;;;;18.08;11.23;;;25.40;99.90;;;;;;5011121;28;20081;-68
2023/09/11 09:02:54;;;;;;;24.48;13.57;;;25.80;99.90;;;;;;5012422;28;20487;-68
2023/09/11 09:05:21;;;;;;;21.02;13.55;;;25.50;99.90;;;;;;5023714;28;20056;-68
2023/09/11 09:07:48;;;;;;;22.33;12.77;;;26.00;99.90;;;;;;5027636;28;20046;-69
2023/09/11 09:10:14;;;;;;;19.83;12.00;;;25.60;99.90;;;;;;5027737;28;20057;-68
2023/09/11 09:12:41;;;;;;;19.40;13.40;;;25.70;99.90;;;;;;5025447;28;20396;-69
2023/09/11 09:15:07;;;;;;;20.23;12.02;;;25.60;99.90;;;;;;5009232;28;20040;-69
2023/09/11 09:17:32;;;;;;;17.73;11.85;;;26.00;99.90;;;;;;5009937;28;20069;-69
2023/09/11 09:19:58;;;;;;;21.33;12.55;;;26.00;99.90;;;;;;5027459;28;20140;-68
2023/09/11 09:22:23;;;;;;;22.25;11.88;;;26.00;99.90;;;;;;5027645;28;20476;-69
2023/09/11 09:24:51;;;;;;;17.88;11.75;;;26.50;99.90;;;;;;5010193;28;20564;-68
2023/09/11 09:27:18;;;;;;;16.80;9.13;;;26.50;99.90;;;;;;5026003;28;20061;-68
2023/09/11 09:29:44;;;;;;;21.80;9.35;;;26.60;99.90;;;;;;5008517;28;20461;-69
2023/09/11 09:32:10;;;;;;;17.20;9.63;;;27.00;99.90;;;;;;5008759;28;20038;-69
2023/09/11 09:34:42;;;;;;;17.00;9.95;;;26.70;99.90;;;;;;5008508;28;20034;-69
2023/09/11 09:37:16;;;;;;;20.50;10.75;;;27.30;99.90;;;;;;4992406;28;20548;-69
2023/09/11 09:39:43;;;;;;;16.65;10.05;;;27.30;99.90;;;;;;5020672;28;20528;-69
2023/09/11 09:42:10;;;;;;;21.70;10.55;;;27.60;99.90;;;;;;5022842;28;20509;-69
2023/09/11 09:44:38;;;;;;;14.73;9.88;;;27.40;99.90;;;;;;5004610;28;20123;-68
2023/09/11 09:47:13;;;;;;;13.20;9.70;;;27.30;99.90;;;;;;5004445;28;20408;-69
2023/09/11 09:49:48;;;;;;;15.82;9.98;;;27.70;99.90;;;;;;5009652;28;20041;-68
2023/09/11 09:52:15;;;;;;;17.50;10.95;;;27.70;99.90;;;;;;5026391;28;20041;-69
2023/09/11 09:54:45;;;;;;;20.52;10.77;;;27.50;99.90;;;;;;5026731;28;20048;-69
2023/09/11 09:57:16;;;;;;;16.25;11.93;;;27.70;99.90;;;;;;5008305;28;20073;-68
2023/09/11 09:59:45;;;;;;;15.75;11.68;;;27.60;99.90;;;;;;5026058;28;20038;-68
2023/09/11 10:02:11;;;;;;;19.77;11.70;;;29.30;99.90;;;;;;5026723;28;20063;-69
2023/09/11 10:04:38;;;;;;;19.33;11.40;;;27.70;99.90;;;;;;5026262;28;20049;-69
2023/09/11 10:07:04;;;;;;;19.60;13.27;;;28.10;99.90;;;;;;5008535;28;20033;-69
2023/09/11 10:09:29;;;;;;;18.17;11.10;;;27.70;99.90;;;;;;5026090;28;20048;-68
2023/09/11 10:12:00;;;;;;;16.52;11.07;;;27.60;99.90;;;;;;5026214;28;20037;-69
2023/09/11 10:14:25;;;;;;;20.02;10.13;;;27.90;99.90;;;;;;5025806;28;20056;-69
2023/09/11 10:16:51;;;;;;;17.45;11.98;;;27.90;99.90;;;;;;5007680;28;20536;-69
2023/09/11 10:19:17;;;;;;;22.65;12.77;;;28.50;99.90;;;;;;5008239;28;20107;-69
2023/09/11 10:21:42;;;;;;;20.00;11.90;;;27.90;99.90;;;;;;5008297;28;20045;-69
2023/09/11 10:24:10;;;;;;;14.73;11.00;;;27.20;99.90;;;;;;5025482;28;20048;-68
2023/09/11 10:26:52;;;;;;;16.40;11.57;;;27.70;99.90;;;;;;5007301;28;20115;-69
2023/09/11 10:29:27;;;;;;;17.20;11.25;;;27.80;99.90;;;;;;5007923;28;20488;-69
2023/09/11 10:32:07;;;;;;;18.55;11.88;;;28.80;99.90;;;;;;5003352;28;20068;-69
2023/09/11 10:34:35;;;;;;;18.23;12.13;;;26.90;99.90;;;;;;5007445;28;20029;-69
2023/09/11 10:37:04;;;;;;;22.77;12.52;;;27.00;99.90;;;;;;5000112;28;20045;-68
2023/09/11 10:39:30;;;;;;;23.33;11.82;;;27.00;99.90;;;;;;5022471;28;20033;-69
2023/09/11 10:41:55;;;;;;;17.40;11.88;;;26.60;99.90;;;;;;4998771;28;20484;-68
2023/09/11 10:44:21;;;;;;;16.23;11.88;;;26.70;99.90;;;;;;5000810;28;20044;-69
2023/09/11 10:46:48;;;;;;;19.27;12.07;;;26.40;99.90;;;;;;5017804;28;20052;-69
2023/09/11 10:49:15;;;;;;;16.27;11.15;;;28.50;99.90;;;;;;5004105;28;20566;-69
2023/09/11 10:51:41;;;;;;;15.25;11.32;;;28.50;99.90;;;;;;5003921;28;20048;-69
2023/09/11 10:54:08;;;;;;;20.65;12.55;;;26.60;99.90;;;;;;5005767;28;20041;-69
2023/09/11 10:56:35;;;;;;;18.83;11.65;;;28.70;99.90;;;;;;5005356;28;20041;-68
2023/09/11 10:59:00;;;;;;;18.70;13.77;;;26.60;99.90;;;;;;5023226;28;20033;-68
2023/09/11 11:01:27;;;;;;;21.08;12.25;;;26.70;99.90;;;;;;5005366;28;20060;-69
2023/09/11 11:03:52;;;;;;;15.98;11.93;;;26.90;99.90;;;;;;5004168;28;20049;-68
2023/09/11 11:06:22;;;;;;;17.05;11.52;;;28.10;99.90;;;;;;4989015;28;20404;-68
2023/09/11 11:08:48;;;;;;;15.98;11.30;;;26.80;99.90;;;;;;5022806;28;20049;-68
2023/09/11 11:11:30;;;;;;;17.60;10.95;;;26.60;99.90;;;;;;5022513;28;20045;-69
2023/09/11 11:14:21;;;;;;;19.95;11.75;;;26.80;99.90;;;;;;5020549;28;20029;-69
2023/09/11 11:17:03;;;;;;;16.98;10.93;;;27.70;99.90;;;;;;5004281;28;20041;-69
2023/09/11 11:19:34;;;;;;;15.30;9.88;;;26.70;99.90;;;;;;5022933;28;20041;-69
2023/09/11 11:22:01;;;;;;;15.25;8.95;;;26.90;99.90;;;;;;5022551;28;20448;-69
2023/09/11 11:24:34;;;;;;;11.55;8.52;;;26.20;99.90;;;;;;5022119;28;20084;-69
2023/09/11 11:27:01;;;;;;;15.97;9.43;;;26.90;99.90;;;;;;5004147;28;20057;-70
2023/09/11 11:29:27;;;;;;;16.77;9.75;;;27.00;99.90;;;;;;5004542;28;20056;-70
2023/09/11 11:31:56;;;;;;;13.80;9.43;;;26.80;99.90;;;;;;5003948;28;20045;-69
2023/09/11 11:34:31;;;;;;;11.50;8.45;;;26.90;99.90;;;;;;5004375;28;20041;-69
2023/09/11 11:36:58;;;;;;;14.88;7.93;;;27.80;99.90;;;;;;5020585;28;20033;-69
2023/09/11 11:39:27;;;;;;;16.90;7.90;;;26.60;99.90;;;;;;5022421;28;20038;-69
2023/09/11 11:41:54;;;;;;;15.35;7.63;;;26.60;99.90;;;;;;5022292;28;20112;-69
2023/09/11 11:44:21;;;;;;;13.25;7.07;;;27.90;99.90;;;;;;5004242;28;20103;-70
2023/09/11 11:46:47;;;;;;;12.48;8.18;;;26.60;99.90;;;;;;5004165;28;20057;-70
2023/09/11 11:49:18;;;;;;;11.55;7.47;;;28.60;99.90;;;;;;5022445;28;20045;-70
2023/09/11 11:51:44;;;;;;;10.85;6.57;;;26.80;99.90;;;;;;5003001;28;20046;-70
2023/09/11 11:54:23;;;;;;;9.98;7.38;;;26.80;99.90;;;;;;5004187;28;20052;-70
2023/09/11 11:57:05;;;;;;;11.77;7.30;;;26.80;99.90;;;;;;5003258;28;20072;-70
2023/09/11 11:59:32;;;;;;;12.52;7.35;;;27.00;99.90;;;;;;5020379;28;20128;-70
2023/09/11 12:01:57;;;;;;;9.88;6.25;;;26.70;99.90;;;;;;5007235;28;20053;-70
2023/09/11 12:04:24;;;;;;;8.52;4.68;;;26.70;99.90;;;;;;5025508;28;20064;-69
2023/09/11 12:06:57;;;;;;;8.40;4.53;;;29.10;99.90;;;;;;5025816;28;20041;-70
2023/09/11 12:09:23;;;;;;;9.15;5.00;;;26.80;99.90;;;;;;5025425;28;20061;-70
2023/09/11 12:11:50;;;;;;;7.68;4.97;;;26.60;99.90;;;;;;5025403;28;20080;-70
2023/09/11 12:14:17;;;;;;;8.60;4.75;;;29.10;99.90;;;;;;5007009;28;20041;-70
2023/09/11 12:16:43;;;;;;;8.10;3.38;;;26.70;99.90;;;;;;5007920;28;20049;-70
2023/09/11 12:19:09;;;;;;;7.97;3.03;;;26.80;99.90;;;;;;5007578;28;20092;-70
2023/09/11 12:21:34;;;;;;;5.90;3.30;;;26.50;99.90;;;;;;5008123;28;20080;-70
2023/09/11 12:24:01;;;;;;;7.35;2.75;;;27.90;99.90;;;;;;5025240;28;20116;-70
2023/09/11 12:26:30;;;;;;;5.15;3.20;;;27.00;99.90;;;;;;5025487;28;20800;-70
2023/09/11 12:28:56;;;;;;;8.18;3.13;;;26.80;99.90;;;;;;5007391;28;20061;-69
2023/09/11 12:31:22;;;;;;;7.85;3.22;;;26.50;99.90;;;;;;5024792;28;20041;-70
2023/09/11 12:33:53;;;;;;;8.02;3.50;;;26.40;99.90;;;;;;5007223;28;20253;-68
2023/09/11 12:36:22;;;;;;;5.25;3.30;;;26.70;99.90;;;;;;5024907;28;20041;-69